Date,TemperatureHighF,TemperatureAvgF,TemperatureLowF,DewpointHighF,DewpointAvgF,DewpointLowF,HumidityHigh,HumidityAvg,HumidityLow,PressureMaxIn,PressureMinIn,WindSpeedMaxMPH,WindSpeedAvgMPH,GustSpeedMaxMPH,PrecipitationSumIn
2013-2-1,35,28,16,26,10,1,84,49,30,30.39,29.77,26,4,28,0.00
2013-2-2,34,24,13,26,15,5,94,71,40,30.39,30.01,18,2,18,0.00
2013-2-3,41,30,22,30,23,13,95,77,46,30.01,29.82,21,2,21,0.02
2013-2-4,37,30,19,22,17,12,83,57,45,30.11,29.89,14,2,15,0.00
2013-2-5,56,40,28,35,29,21,89,66,42,29.92,29.80,21,2,21,0.00
2013-2-6,55,40,26,34,28,24,94,67,33,30.34,29.92,15,1,15,0.00
2013-2-7,40,34,26,29,26,23,91,73,54,30.42,30.16,9,1,9,0.00
2013-2-8,50,39,32,41,33,23,97,80,52,30.16,29.77,24,2,25,0.35
2013-2-9,48,37,23,24,16,10,76,46,22,30.37,29.97,22,3,22,0.00
2013-2-10,45,33,17,31,19,14,90,59,33,30.49,30.23,14,1,14,0.00
2013-2-11,59,49,36,51,41,20,98,78,24,30.23,29.74,21,5,21,0.06
2013-2-12,60,50,40,32,26,19,71,39,24,29.97,29.81,25,4,25,0.00
2013-2-13,42,38,32,36,31,27,97,78,62,29.92,29.64,9,1,9,0.06
2013-2-14,52,38,27,34,28,22,98,71,31,30.02,29.79,12,2,12,0.01
2013-2-15,60,44,27,39,32,24,94,67,35,30.04,29.87,17,2,17,0.05
2013-2-16,39,36,29,37,28,14,96,74,50,30.00,29.83,14,2,14,0.01
2013-2-17,30,27,22,17,8,1,71,45,30,30.24,29.87,23,5,24,0.00
2013-2-18,47,33,18,22,12,5,64,43,21,30.38,30.16,16,3,16,0.00
2013-2-19,46,41,36,41,30,16,89,66,36,30.16,29.74,25,7,25,0.04
2013-2-20,46,36,26,19,15,11,65,43,26,30.15,29.87,24,4,25,0.00
2013-2-21,45,33,24,19,16,13,67,50,32,30.32,30.12,21,2,21,0.00
2013-2-22,37,33,30,30,23,18,86,67,56,30.37,30.19,10,1,10,0.00
2013-2-23,52,39,33,43,35,30,96,87,69,30.20,29.82,6,0,7,0.00
2013-2-24,57,44,32,42,32,20,98,69,27,30.11,29.80,17,2,17,0.00
2013-2-25,46,33,21,23,20,17,87,62,36,30.23,30.11,10,1,11,0.00
2013-2-26,42,33,24,41,30,19,97,89,70,30.22,29.59,13,2,15,1.20
2013-2-27,55,45,35,44,37,31,98,77,44,29.70,29.55,19,3,19,0.01
2013-2-28,47,41,34,34,29,25,90,64,41,29.76,29.63,14,3,16,0.00